Castle Hayne, North Carolina
Current Conditions -  °F | °C
As of 1:53 AM on Sunday 23 Nov 2014 (Local Time) from KILM Reporting Station
Clear Clear  
Wind Chill: 47°   Ceiling: Unl
Heat Index: 47°   Visibility: 8mi
Dew Point: 44°   Wind: 3mph
Humidity: 90%   Direction: 50°NE
Pressure: 30.28"   Gusts: NA
Location:  34.36°N, 77.9°W
Report Text: KILM 230653Z AUTO 05003KT 8SM CLR 08/07 A3028 RMK AO2 SLP253 T00830067
Loading
Personal Weather Stations






























Interactive Weather Map New forecast layout! Learn more

10-Day Weather Forecast

Advertisements
Track Severe Weather on mobile